Clearview, Washington
Current Conditions -  °F | °C
As of 12:07 PM on Saturday 20 Dec 2014 (Local Time) from KPAE Reporting Station
Light Rain Light Rain  
Wind Chill: 39°   Ceiling: 1200
Heat Index: 45°   Visibility: 2mi
Dew Point: 42°   Wind: 14mph
Humidity: 90%   Direction: 150°SSE
Pressure: 29.56"   Gusts: 22mph
Location:  47.9468°N, 122.012°W
Report Text: KPAE 202007Z 15012G19KT 2SM -RA BR FEW003 BKN012 OVC055 07/06 A2956 RMK AO2 P0000 T00720056
Loading
Personal Weather Stations






























Interactive Weather Map New forecast layout! Learn more

10-Day Weather Forecast

Advertisements
Track Severe Weather on mobile